Quake List 2015

List of significant Earthquakes Magnitude 6.0+ (Latest First) Based on USGS and EMSC Listings The heading link takes you to the USGS pages for the event. The links in the list for USGS take you to the relevant page in this blog which shows the details of the event. The links for EMSC take you to the event on the EMSC site. ‡ against a month name means checked against ANSS.

Jan Feb Mar Apr May Jun
Jul Aug Sep Oct Nov Dec

Changed magnitudes are marked with ↓ or ↑ and the details are in italics with the changed value e.g. 6.0 in bold. {!}=Currently only Mag 6+ on one provider where other providers are under Mag 6. This listing page is NOT an instant update page and it will be up to 5 days before details appear here especially if the initial determination is uncertain. You will however find any ‘missing’ quake in the blog posts. [→] indicates this opens in a new tab/page.

Year To Date Counts [USGS]: Mag 6: 110*[114] Mag 7: 19 Mag 8: 1 Mag 9: 0
Year To Date Counts [EMSC]: Mag 6: 118 Mag 7: 19 Mag 8: 1 Mag 9: 0

December 2015

USGS Listing

December 2015 Counts [USGS]: Mag 6: 4 Mag 7: 2 Mag 8: 0 Mag 9: 0

Date/Time UTC,Latitude,Longitude,Magnitude,Depth(Km),Location
2015-12-25 19:14:47, 36.485, 71.137, 6.3, 206.0 Afghanistan-Tajikistan Bord Reg. (717)
2015-12-24 19:44:03, -55.775, -123.091, 6.1, 12.0 Sthn East Pacific Rise (684)
2015-12-20 18:47:35, 3.633, 117.625, 6.0, 9.0, Borneo (261)
2015-12-19 02:10:53, -18.399, 169.399, 6.2, 10.0, Vanuatu Isls. (186)
2015-12-17 19:49:54, 15.888, -93.446, 6.6, 97.7, Nr. Coast Of Chiapas. Mexico (69)
2015-12-09 10:21:50, -4.118, 129.477, 6.9, 33.8, Banda Sea (280)
2015-12-07 07:50:06, 38.257, 72.766, 7.2, 26.0, Tajikistan (715)
2015-12-04 22:24:55, -47.616, 85.091, 7.1, 35.0, SE Indian Ridge (435)


EMSC Listing

December 2015 Counts [EMSC]: Mag 6: 5 Mag 7: 3 Mag 8: 0 Mag 9: 0

Date/Time UTC,Latitude,Longitude,Magnitude,Depth(Km),Location
2015-12-25 19:14:47, 36.520, 71.260, 6.2, 200.0 Hindu Kush Region. Afghanistan
2015-12-20 18:47:36, 3.680, 117.690, 6.1, 10.0. Kalimantan. Ind.
2015-12-19 02:10:54, -18.230, 169.450, 6.0, 10.0. Vanuatu
2015-12-17 19:49:53, 15.920, -93.380, 6.5, 94.0. Chiapas. Mexico
2015-12-09 12:58:01, -16.710, 175.260, 6.0, 10.0. Fiji Region
2015-12-09 10:21:51, -4.140, 129.560, 7.0, 45.0, Banda Sea
2015-12-07 07:50:07, 38.190, 72.920, 7.2, 30.0, Tajikistan
2015-12-04 22:24:54, -47.790, 85.220, 7.1, 10.0, SE Indian Ridge

November 2015

USGS Listing

November 2015 Counts [USGS]: Mag 6: 13 Mag 7: 3 Mag 8: 0 Mag 9: 0

Date/Time UTC,Latitude,Longitude,Magnitude,Depth(Km),Location
2015-11-27 21:00:22, -24.817, -70.632, 6.2, 35.0, Nr. Coast Of Nthn Chile (122)
2015-11-26 05:45:18, -9.191, -71.288, 6.7, 599.3, Peru-Brazil Border Region (112)
2015-11-24 22:50:53, -10.047, -71.022, 7.6, 611.7, Peru-Brazil Border Region (112)
2015-11-24 22:45:38, -10.548, -70.903, 7.6, 600.6, Peru-Brazil Border Region (112)
2015-11-24 13:21:35, 18.790, 145.311, 6.0, 586.2 Mariana Isls. (216)
2015-11-21 09:06:12, -7.207, 129.925, 6.1, 67.3, Banda Sea (280)
2015-11-18 18:31:04, -8.928, 158.410, 7.0, 13.3, Solomon Isls. (193)
2015-11-17 07:10:08, 38.754, 20.551, 6.5, 11.0, Greece (364)
2015-11-13 20:51:30, 30.991, 128.876, 6.7, 12.0, NW Of Ryukyu Isls. (234)
2015-11-11 02:46:19, -29.444, -72.173, 6.9, 10.0, Off Coast Of Central Chile (134)
2015-11-11 01:54:37, -29.439, -72.105, 6.9, 10.0, Off Coast Of Central Chile (134)
2015-11-09 16:03:45, 51.735, -173.066, 6.2, 10.0, Andreanof Isls. Aleutian Is. (7)
2015-11-08 16:47:02, 6.845, 94.660, 6.4, 10.0, Nicobar Isls. India Region (704)
2015-11-07 07:31:43, -30.904, -71.545, 6.8, 37.5, Nr. Coast Of Central Chile (135)
2015-11-07 07:04:31, -29.453, -72.290, 6.2, 12.0, Off Coast Of Central Chile (134)
2015-11-04 03:44:15, -8.353, 124.899, 6.3, 14.3, Timor Region (289)


Downgraded Events in November
↓  2015-11-08 09:34:57, 0.742, 98.875, 5.7was 6.1, 75.0, Nthn Sumatra. Ind. (706)


EMSC Listing

November 2015 Counts [EMSC]: Mag 6: 11 Mag 7: 3 Mag 8: 0 Mag 9: 0

Date/Time UTC,Latitude,Longitude,Magnitude,Depth(Km),Location
2015-11-27 21:00:19, -24.850, -70.590, 6.2, 10.0 Offshore Antofagasta. Chile
2015-11-26 05:45:18, -9.210, -71.260, 6.7, 609.0 Peru-Brazil Border Region
2015-11-24 22:50:54, -10.070, -71.000, 7.6, 631.0, Central Peru
2015-11-24 22:45:40, -10.670, -71.080, 7.5, 636.0, Central Peru
2015-11-24 13:21:36, 18.800, 145.280, 6.0, 593.0 Pagan Reg.. N. Mariana Isls.
2015-11-21 09:06:15, -7.290, 130.040, 6.1, 100.0 Kep. Tanimbar Region. Ind.
2015-11-18 18:31:05, -8.960, 158.410, 7.0, 20.0, Solomon Isls.
2015-11-20 05:31:51, 26.360, 142.820, 6.0, 10.0 Bonin Isls. Japan Region
2015-11-17 07:10:08, 38.800, 20.390, 6.1, 2.0, Greece
2015-11-16 16:49:19, 48.380, 154.160, 6.1, 80.0, Kuril Isls.
2015-11-13 20:51:35, 30.950, 129.000, 6.7, 10.0, Kyushu. Japan
2015-11-11 02:46:20, -29.500, -71.810, 6.8, 10.0, Offshore Coquimbo. Chile
2015-11-11 01:54:37, -29.470, -71.920, 6.9, 10.0, Offshore Coquimbo. Chile
2015-11-09 16:03:45, 51.920, -173.140, 6.4, 10.0, Andreanof Isls. Aleutian Is.
2015-11-08 16:47:03, 6.840, 94.580, 6.5, 23.0, Nicobar Isls. India Region
2015-11-07 07:31:41, -30.860, -71.450, 6.9, 30.0, Coquimbo. Chile
2015-11-04 03:44:15, -8.300, 124.910, 6.5, 15.0, Kepulauan Alor. Ind.


October 2015

USGS Listing

October 2015 Counts [USGS]: Mag 6: 0*[4] Mag 7: 2 Mag 8: 0 Mag 9: 0

Date/Time UTC,Latitude,Longitude,Magnitude,Depth(Km),Location
2015-10-26 09:09:32, 36.440, 70.716, 7.5, 212.5, Hindu Kush Region. Afghanistan (718)
2015-10-20 21:52:02, -14.841, 167.306, 7.1, 127.0, Vanuatu Isls. (186)


[*] There are a number of October quakes that USGS has failed to report as M6+ despite the moment tensors showing them to be so:-
2015-10-23 04:04:17, -45.800, 37.143, 5.7, 10.0 Prince Edward Isls. Region (431)
2015-10-23 01:40:05, -54.232, 6.086, 5.5, 10.0 Bouvet Island Region (412)
2015-10-18 16:18:35, -16.254, -173.185, 5.9, 10.0 Tonga Isls. (173)
2015-10-11 00:58:27, -54.576, -135.809, 5.5, 10.0, Pacific-Antarctic Ridge (691)


EMSC Listing

October 2015 Counts [EMSC]: Mag 6: 5 Mag 7: 2 Mag 8: 0 Mag 9: 0

Date/Time UTC,Latitude,Longitude,Magnitude,Depth(Km),Location
2015-10-26 09:09:32, 36.480, 70.910, 7.5, 207.0, Hindu Kush Region. Afghanistan
↑  2015-10-23 04:04:17, -45.850, 37.130, 6.0was 5.9, 10.0, Prince Edward Isls. Region
2015-10-23 01:40:05, -54.280, 6.380, 6.1, 10.0, Bouvet Island Region
2015-10-20 21:52:03, -14.890, 167.310, 7.1, 147.0, Vanuatu
2015-10-18 16:18:35, -16.030, -173.310, 6.0, 10.0, Tonga
2015-10-11 00:58:27, -54.560, -135.830, 6.1, 10.0, Pacific-Antarctic Ridge
2015-10-05 16:33:22, -30.180, -71.690, 6.0, 10.0, Offshore Coquimbo. Chile


September 2015

USGS Listing

September 2015 Counts [USGS]: Mag 6: 21 Mag 7: 1 Mag 8: 1 Mag 9: 0

Date/Time UTC,Latitude,Longitude,Magnitude,Depth(Km),Location
2015-09-26 02:51:18, -30.819, -71.385, 6.2, 38.0 Nr. Coast Of Central Chile (135)
2015-09-24 15:56:57, -10.149, 160.491, 6.0, 23.3 Solomon Isls. (193)
2015-09-24 15:53:28, -0.629, 131.254, 6.6, 24.0, Irian Jaya Region. Ind. (196)
2015-09-22 07:12:59, -31.478, -71.196, 6.1, 54.3, Nr. Coast Of Central Chile (135)
2015-09-21 17:40:00, -31.746, -71.629, 6.6, 34.2, Nr. Coast Of Central Chile (135)
2015-09-21 05:39:33, -31.585, -71.711, 6.3, 22.8, Nr. Coast Of Central Chile (135)
2015-09-19 12:52:19, -32.334, -72.091, 6.2, 10.6, Off Coast Of Central Chile (134)
2015-09-18 15:59:42, 15.233, -45.973, 6.0, 10.0, Nthn Mid-Atlantic Ridge (403)
2015-09-18 09:10:44, -32.408, -72.235, 6.3, 8.6, Off Coast Of Central Chile (134)
2015-09-17 04:10:30, -31.538, -71.714, 6.7, 30.1, Nr. Coast Of Central Chile (135)
2015-09-17 03:55:06, -31.083, -71.296, 6.5, 35.0, Nr. Coast Of Central Chile (135)
2015-09-17 01:41:09, -31.148, -71.553, 6.4, 35.0, Nr. Coast Of Central Chile (135)
2015-09-16 23:18:42, -31.587, -71.431, 7.0, 30.8 Nr. Coast Of Central Chile (135)
2015-09-16 23:16:05, -31.588, -71.909, 6.2, 10.0, Nr. Coast Of Central Chile (135)
2015-09-16 23:03:56, -31.841, -71.565, 6.1, 10.0, Nr. Coast Of Central Chile (135)
2015-09-16 22:59:13, -31.600, -71.784, 6.4, 21.9, Nr. Coast Of Central Chile (135)
2015-09-16 22:54:33, -31.569, -71.654, 8.3, 25.0, Nr. Coast Of Central Chile (135)
2015-09-16 14:03:22, -5.971, 151.444, 6.1, 6.0, New Britain Region. P.N.G. (192)
2015-09-16 07:40:59, 1.852, 126.380, 6.3, 52.6, Nthn Molucca Sea (266)
2015-09-13 08:14:12, 25.155, -109.377, 6.6, 10.0, Gulf Of California (49)
2015-09-07 09:13:58, -32.932, -177.891, 6.4, 35.3, South Of Kermadec Isls. (179)
2015-09-01 15:25:09, 31.172, 141.600, 6.0, 7.3, SE Of Honshu. Japan (211)


Downgraded below Mag 6
↓  2015-09-07 14:06:24, -32.866, -177.680, 5.9Was 6.2, 10.0, South Of Kermadec Isls. (179)


EMSC Listing

September 2015 Counts [EMSC]: Mag 6: 20 Mag 7: 1 Mag 8: 1 Mag 9: 0

Date/Time UTC,Latitude,Longitude,Magnitude,Depth(Km),Location
2015-09-26 21:40:34, -56.960, -142.490, 6.0, 10.0, Pacific-Antarctic Ridge
2015-09-26 02:51:17, -30.820, -71.290, 6.4, 40.0, Coquimbo. Chile
2015-09-24 15:56:55, -10.160, 160.570, 6.0, 20.0, Solomon Isls.
2015-09-24 15:53:32, -0.580, 131.170, 6.5, 40.0, Nr. N Coast Of Papua. Ind.
2015-09-22 07:13:00, -31.420, -71.120, 6.1, 60.0, Coquimbo. Chile
2015-09-21 17:39:58, -31.700, -71.460, 6.6, 25.0, Coquimbo. Chile
2015-09-21 05:39:34, -31.550, -71.510, 6.3, 30.0, Coquimbo. Chile
2015-09-19 12:52:19, -32.290, -71.920, 6.2, 10.0, Offshore Valparaiso. Chile
2015-09-18 09:10:45, -32.380, -71.970, 6.2, 10.0, Offshore Valparaiso. Chile
2015-09-17 04:10:32, -31.480, -71.600, 6.3, 40.0, Offshore Coquimbo. Chile
2015-09-17 03:55:07, -30.890, -71.300, 6.5, 41.0, Coquimbo. Chile
2015-09-17 01:41:08, -31.140, -71.510, 6.1, 40.0, Coquimbo. Chile
2015-09-16 23:18:43, -31.580, -71.410, 7.0, 40.0, Coquimbo. Chile
2015-09-16 23:16:08, -31.580, -71.680, 6.2, 30.0, Offshore Coquimbo. Chile
2015-09-16 23:03:58, -31.780, -71.670, 6.1, 40.0, Offshore Coquimbo. Chile
2015-09-16 22:59:15, -31.620, -71.790, 6.4, 40.0, Offshore Coquimbo. Chile
2015-09-16 22:54:33, -31.570, -71.580, 8.3, 30.0, Offshore Coquimbo. Chile
2015-09-16 14:03:21, -5.940, 151.400, 6.1, 5.0, New Britain Region. P.N.G.
2015-09-16 07:40:55, 1.920, 126.570, 6.3, 20.0, Molucca Sea
2015-09-13 08:14:12, 25.160, -109.360, 6.6, 10.0, Gulf Of California
2015-09-07 09:13:57, -32.950, -177.890, 6.3, 25.0, South Of Kermadec Isls.
2015-09-01 15:25:09, 31.200, 141.600, 6.0, 7.3, IZU Islands. Japan Region


Downgraded below Mag 6
↓  2015-09-07 14:06:26, -33.110, -177.930, 5.9Was 6.2, 10.0 South Of Kermadec Isls.


August 2015

USGS Listing

August 2015 Counts [USGS]: Mag 6: 4 Mag 7: 0 Mag 8: 0 Mag 9: 0

Date/Time UTC,Latitude,Longitude,Magnitude,Depth(Km),Location
2015-08-15 07:47:06, -10.904, 163.876, 6.6, 6.3, Solomon Isls. (193)
2015-08-12 18:49:23, -9.319, 157.933, 6.4, 5.0, Solomon Isls. (193)
2015-08-10 04:12:14, -9.380, 157.996, 6.9, 10.0, Solomon Isls. (193)
2015-08-06 23:59:45, -26.457, -178.251, 6.0, 269.0 South Of Fiji Isls. (171)


EMSC Listing

August 2015 Counts [EMSC]: Mag 6: 5 Mag 7: 0 Mag 8: 0 Mag 9: 0

Date/Time UTC,Latitude,Longitude,Magnitude,Depth(Km),Location
2015-08-24 09:41:26, -30.430, -179.000, 6.0, 228.0, Kermadec Isls. Region
2015-08-15 07:47:09, -10.920, 163.780, 6.6, 30.0, Solomon Isls.
2015-08-13 10:39:53, -37.070, 78.090, 6.0, 10.0, Mid-Indian Ridge
2015-08-12 18:49:24, -9.340, 157.880, 6.5, 10.0, Solomon Isls.
2015-08-10 04:12:13, -9.330, 158.040, 6.9, 10.0, Solomon Isls.


July 2015

USGS Listing

July 2015 Counts [USGS]: Mag 6: 9 Mag 7: 2 Mag 8: 0 Mag 9: 0

Date/Time UTC,Latitude,Longitude,Magnitude,Depth(Km),Location
2015-07-29 02:35:59, 59.905, -153.149, 6.3, 116.6, Sthn Alaska (2)
2015-07-27 21:41:21, -2.682, 138.508, 7.0, 48.0, Irian Jaya. Ind. (201)
2015-07-27 04:49:46, 52.442, -169.596, 6.9, 27.0, Fox Isls. Aleutian Isls. (9)
2015-07-26 07:05:08, -9.246, 112.693, 6.0, 59.2, South Of Java. Ind. (282)
2015-07-18 02:27:33, -10.443, 165.171, 7.0, 10.0 Santa Cruz Isls. (184)
2015-07-16 15:16:32, 13.855, -58.550, 6.5, 10.0, North Atlantic Ocean (402)
2015-07-10 04:12:41, -9.313, 158.423, 6.7, 10.0, Solomon Isls. (193)
2015-07-07 05:10:27, 43.985, 147.936, 6.3, 38.1, Kuril Isls. (221)
2015-07-06 12:24:02, -20.792, -174.488, 6.2, 10.0, Tonga Isls. (173)
2015-07-03 06:43:22, 10.170, 125.898, 6.1, 33.0, Leyte. Philippines (256)
2015-07-03 01:07:47, 37.460, 78.125, 6.4, 20.0, Sthn Xinjiang. China (321)


EMSC Listing

July 2015 Counts [EMSC]: Mag 6: 7 Mag 7: 2 Mag 8: 0 Mag 9: 0

Date/Time UTC,Latitude,Longitude,Magnitude,Depth(Km),Location
2015-07-29 02:35:56, 60.140, -153.460, 6.3, 103.0, Sthn Alaska
2015-07-27 21:41:21, -2.650, 138.550, 7.0, 50.0, Papua. Ind.
2015-07-27 04:49:45, 52.390, -169.570, 6.9, 20.0, Fox Isls. Aleutian Isls.
2015-07-18 02:27:33, -10.380, 165.200, 7.0, 10.0, Santa Cruz Isls.
2015-07-16 15:16:32, 13.830, -58.640, 6.5, 10.0, Barbados Region. Windward Isl.
2015-07-10 04:12:41, -9.350, 158.390, 6.8, 10.0, Solomon Isls.
2015-07-07 05:10:22, 44.060, 148.050, 6.4, 2.0, Kuril Isls.
2015-07-03 06:43:26, 10.210, 126.060, 6.0, 80.0, Philippine Isls. Region
2015-07-03 01:07:46, 37.470, 78.110, 6.4, 20.0, Sthn Xinjiang. China


June 2015

June 2015 Counts [USGS]: Mag 6: 10 Mag 7: 1 Mag 8: 0 Mag 9: 0

Date/Time UTC,Latitude,Longitude,Magnitude,Depth(Km),Location
2015-06-30 03:39:28, -5.452, 151.601, 6.0, 35.0, New Britain Region. P.N.G. (192)
2015-06-25 18:45:57, -32.081, -178.136, 6.0, 10.0, South Of Kermadec Isls. (179)
2015-06-23 12:18:29, 27.668, 139.793, 6.3, 455.8, Bonin Isls. Japan Region (212)
2015-06-21 21:28:16, -20.457, -178.350, 6.0, 561.4, Fiji Isls. Region (181)
2015-06-20 02:10:06, -36.328, -73.816, 6.4, 10.0 Nr. Coast Of Central Chile (135)
2015-06-17 12:51:33, -35.362, -17.391, 7.0, 10.0 Sthn Mid-Atlantic Ridge (410)
2015-06-16 06:17:00, -20.405, -178.911, 6.0, 652.9 Fiji Isls. Region (181)
2015-06-12 11:07:04, -15.595, -172.996, 6.3, 28.6, Samoa Isls. Region (169)
2015-06-10 13:52:08, -22.410, -68.329, 6.0, 121.5, Nthn Chile (123)
2015-06-08 06:01:08, 41.459, 141.954, 6.2, 44.2, Hokkaido. Japan Region (224)
2015-06-04 23:15:43, 5.978, 116.528, 6.0, 10.0, Borneo (261)


EMSC Listing

June 2015 Counts [EMSC]: Mag 6: 11 Mag 7: 0 Mag 8: 0 Mag 9: 0

Date/Time UTC,Latitude,Longitude,Magnitude,Depth(Km),Location
2015-06-30 03:39:28, -5.380, 151.570, 6.0, 35.0, New Britain Region. P.N.G.
2015-06-25 18:45:56, -32.220, -178.080, 6.0, 10.0, South Of Kermadec Isls.
2015-06-23 12:18:30, 27.690, 139.800, 6.5, 472.0, Bonin Isls. Japan Region
2015-06-21 21:28:16, -20.470, -178.340, 6.0, 563.0, Fiji Region
2015-06-20 23:39:08, -23.510, -177.090, 6.5, 144.0, South Of Fiji Isls.
2015-06-20 02:10:06, -36.330, -73.660, 6.5, 10.0, Offshore Bio-Bio. Chile
2015-06-17 12:51:32, -35.360, -17.730, 6.9, 10.0, Sthn Mid-Atlantic Ridge
2015-06-12 11:07:01, -15.570, -173.120, 6.0, 5.0, Tonga
2015-06-10 13:52:09, -22.470, -68.520, 6.1, 137.0, Antofagasta. Chile
2015-06-08 06:01:10, 41.540, 142.080, 6.0, 60.0, Hokkaido. Japan Region
2015-06-04 23:15:48, 6.080, 116.670, 6.0, 40.0, Sabah. Malaysia


May 2015

May 2015 Counts [USGS]: Mag 6: 13 Mag 7: 4 Mag 8: 0 Mag 9: 0

Date/Time UTC,Latitude,Longitude,Magnitude,Depth(Km),Location
2015-05-30 18:49:07, 30.744, 142.973, 6.2, 8.7, SE Of Honshu. Japan (211)
2015-05-30 11:23:02, 27.831, 140.493, 7.8, 677.5, Bonin Isls. Japan Region (212)
2015-05-29 07:00:08, 56.689, -156.578, 6.8, 51.0,
Alaska Peninsula (12)
2015-05-24 14:38:59, -19.379, -175.992, 6.2, 13.0, Tonga Isls. (173)
2015-05-24 04:53:22, -16.830, -14.185, 6.3, 10.0, Sthn Mid-Atlantic Ridge (410)
2015-05-22 23:59:33, -11.151, 163.197, 6.8, 10.0, Solomon Isls. (193)
2015-05-22 21:45:19, -11.072, 163.683, 6.9, 9.8, Solomon Isls. (193)
2015-05-20 22:48:54, -10.876, 164.154, 6.9, 19.8, Santa Cruz Isls. Region (183)
2015-05-20 22:48:54, -10.876, 164.154, 6.9, 19.8, Santa Cruz Isls. Region (183)
2015-05-19 15:25:21, -54.359, -132.157, 6.7, 10.1, Pacific-Antarctic Ridge (691)
2015-05-15 20:26:55, -2.629, 102.157, 6.0, 151.0, Sthn Sumatra. Ind. (274)
2015-05-12 21:12:58, 38.902, 142.032, 6.8, 38.8, Nr. E. Coast Of Honshu. Japan (228)
2015-05-12 07:36:53, 27.618, 86.165, 6.3, 15.0, Nepal (310)
2015-05-12 07:05:19, 27.836, 86.077, 7.3, 15.0, Nepal (310)
2015-05-07 07:10:22, -7.225, 154.551, 7.1, 23.1, Solomon Isls. (193)
2015-05-05 01:44:05, -5.465, 151.885, 7.5, 42.0, New Britain Region. P.N.G. (192)
2015-05-01 08:06:04, -5.196, 151.801, 6.8, 57.0, New Britain Region. P.N.G. (192)
Last check magnitudes: 05 May 2015


EMSC Listing

May 2015 Counts [EMSC]: Mag 6: 13 Mag 7: 4 Mag 8: 0 Mag 9: 0

Date/Time UTC,Latitude,Longitude,Magnitude,Depth(Km),Location
2015-05-30 18:49:10, 30.740, 143.010, 6.1, 30.0, Izu Isls. Japan Region
2015-05-30 11:23:03, 27.910, 140.470, 7.8, 691.0, Bonin Isls. Japan Region
2015-05-29 07:00:08, 56.780, -156.730, 6.8, 60.0, Alaska Peninsula
2015-05-24 14:38:59, -19.430, -175.970, 6.3, 10.0, Tonga
2015-05-24 04:53:23, -16.730, -14.190, 6.4, 10.0, Sthn Mid-Atlantic Ridge
2015-05-22 23:59:35, -11.090, 163.140, 6.8, 10.0, Solomon Isls.
2015-05-22 21:45:20, -11.130, 163.540, 6.8, 10.0, Solomon Isls.
2015-05-20 22:48:53, -10.880, 164.140, 6.8, 10.0, Santa Cruz Isls. Region
2015-05-20 00:30:53, -19.270, -175.610, 6.0, 200.0, Tonga
2015-05-19 15:25:25, -54.560, -131.950, 6.7, 33.0, Pacific-Antarctic Ridge
2015-05-12 21:12:59, 38.950, 141.990, 6.8, 40.0, Nr. E. Coast Of Honshu. Japan
2015-05-12 07:36:52, 27.620, 86.210, 6.3, 2.0, Nepal
2015-05-12 07:05:18, 27.830, 86.140, 7.1, 2.0, Nepal
2015-05-07 07:10:22, -7.230, 154.560, 7.1, 20.0, Bougainville Region. P.N.G.
2015-05-05 01:44:04, -5.440, 151.970, 7.3, 31.0, New Britain Region. P.N.G.
2015-05-04 02:29:10, -44.540, 168.830, 6.0, 5.0, S. Isl Of NZ
2015-05-01 08:06:06, -5.160, 151.850, 6.8, 60.0, New Britain Region. P.N.G.
Last check magnitudes: 05 May 2015

April 2015

Apr 2015 Counts [USGS]: Mag 6: 13 Mag 7: 1 Mag 8: 0 Mag 9: 0

Date/Time UTC,Latitude,Longitude,Magnitude,Depth(Km),Location
2015-04-30 10:45:05, -5.391, 151.817, 6.7, 48.8, New Britain Region. P.N.G. (192)
2015-04-28 16:39:39, -20.866, -178.638, 6.1, 579.3, Fiji Isls. Region (181)
2015-04-26 07:09:10, 27.782, 85.997, 6.7, 17.2, Nepal (310)
2015-04-25 06:45:21, 28.192, 84.864, 6.6, 14.6, Nepal (310)
2015-04-25 06:11:26, 28.130, 84.649, 7.9, 15.0, Nepal (310)
2015-04-24 13:56:16, 51.768, -130.695, 6.2, 10.0, Queen Charlotte Isls. Region (22)
2015-04-24 03:36:43, -42.063, 172.999, 6.1, 55.0, S. Isl. NZ (162)
2015-04-22 22:57:15, -12.025, 166.423, 6.3, 72.0, Santa Cruz Isls. (184)
2015-04-20 12:00:00, 24.066, 122.512, 6.1, 29.0, Taiwan Region (243)
2015-04-20 11:45:13, 24.068, 122.461, 6.0, 29.0, Taiwan Region (243)
2015-04-20 01:42:58, 24.193, 122.326, 6.4, 29.0, Taiwan Region (243)
2015-04-17 15:52:51, -15.907, -178.584, 6.5, 10.0, Fiji Isls. Region (181)
2015-04-16 18:07:42, 35.136, 26.821, 6.0, 20.0, Crete. Greece (370)
2015-04-02 04:10:11, -17.836, -178.662, 6.0, 560.5, Fiji Isls. Region (181)


EMSC Listing

Apr 2015 Counts [EMSC]: Mag 6: 11 Mag 7: 1 Mag 8: 0 Mag 9: 0

Date/Time UTC,Latitude,Longitude,Magnitude,Depth(Km),Location
2015-04-30 10:45:06, -5.390, 151.730, 6.7, 54.0, New Britain Region. P.N.G.
2015-04-28 16:39:37, -20.920, -178.680, 6.2, 566.0, Fiji Region
2015-04-26 07:09:10, 27.860, 86.080, 6.7, 15.0, Nepal
2015-04-25 06:45:30, 28.310, 84.830, 6.7was 6.5, 80.0, Nepal
2015-04-25 06:11:26, 28.270, 84.780, 7.8, 10.0, Nepal
2015-04-24 13:56:15, 51.690, -130.790, 6.1, 10.0, Queen Charlotte Isls. Region
2015-04-24 03:36:41, -42.230, 173.320, 6.0, 80.0, S. Isl Of NZ
2015-04-22 22:57:17, -12.010, 166.490, 6.3, 80.0, Santa Cruz Isls.
2015-04-20 12:00:00, 24.110, 122.650, 6.0, 30.0, Taiwan Region
2015-04-20 01:42:59, 24.180, 122.440, 6.4was 6.6, 30.0, Taiwan Region
2015-04-17 15:52:53, -16.110, -178.390, 6.5, 10.0, Fiji Region
2015-04-16 18:07:44, 35.030, 26.810, 6.1, 30.0, Crete. Greece
2015-04-07 00:46:18, -15.300, -173.310, 6.3, 10.0, Tonga
Last check magnitudes: 05 May 2015

March 2015

Mar 2015 Counts [USGS]: Mag 6: 7 Mag 7: 1 Mag 8: 0 Mag 9: 0

Date/Time UTC,Latitude,Longitude,Magnitude,Depth(Km),Location
2015-03-30 08:48:26, -15.514, -172.940, 6.5, 15.5, Samoa Isls. Region (169)
2015-03-30 08:18:00, -15.388, -172.903, 6.4, 11.5, Samoa Isls. Region (169)
2015-03-29 23:48:31, -4.759, 152.555, 7.5, 40.0, New Britain Region. P.N.G. (192)
2015-03-23 04:51:37, -18.383, -69.145, 6.4, 120.9, Nthn Chile (123)
2015-03-18 18:27:28, -36.096, -73.625, 6.2, 10.0, Nr. Coast Of Central Chile (135)
2015-03-17 22:12:28, 1.657, 126.490, 6.2, 45.7, Nthn Molucca Sea (266)
2015-03-10 20:55:44, 6.768, -72.970, 6.2, 157.4, Nthn Colombia (99)
2015-03-03 10:37:31, -0.766, 98.707, 6.4, 37.6, Sthn Sumatra. Ind. (274)


EMSC Listing

Mar 2015 Counts [EMSC]: Mag 6: 12 Mag 7: 1 Mag 8: 0 Mag 9: 0

Date/Time UTC,Latitude,Longitude,Magnitude,Depth(Km),Location
2015-03-31 12:18:25, -4.850, 152.490, 6.0, 50.0, New Britain Region. P.N.G.
2015-03-30 08:48:26, -15.430, -173.080, 6.6, 10.0, Tonga
2015-03-30 08:18:01, -15.440, -172.970, 6.7, 10.0, Samoa Isls. Region
2015-03-30 07:56:54, -15.480, -173.090, 6.0, 10.0, Tonga
2015-03-29 23:48:32, -4.750, 152.620, 7.5, 40.0, New Britain Region. P.N.G.
2015-03-28 22:28:52, 0.450, 122.040, 6.0, 124.0, Minahasa. Sulawesi. Ind.
2015-03-23 04:51:38, -18.460, -69.170, 6.4, 132.0, Tarapaca. Chile
2015-03-18 18:27:28, -36.090, -73.530, 6.2, 2.0, Offshore Bio-Bio. Chile
2015-03-17 22:12:31, 1.720, 126.460, 6.2, 60.0, Molucca Sea
2015-03-10 20:55:46, 6.840, -73.120, 6.2, 178.0, Nthn Colombia
2015-03-07 22:19:01, -6.630, 151.740, 6.0, 47.0, New Britain Region. P.N.G.
2015-03-06 08:22:19, -41.280, 80.560, 6.0, 10.0, Mid-Indian Ridge
2015-03-03 10:37:32, -0.670, 98.720, 6.2, 37.0, Kepulauan Batu. Ind.


February 2015

Feb 2015 Counts [USGS]: Mag 6: 10 Mag 7: 2 Mag 8: 0 Mag 9: 0

Date/Time UTC,Latitude,Longitude,Magnitude,Depth(Km),Location
2015-02-27 13:45:05, -7.287, 122.532, 7.0, 552.3, Flores Sea (279)
2015-02-22 14:23:14, 18.716, -106.806, 6.2, 10.0, Off Coast Of Jalisco. Mexico (54)
2015-02-21 10:13:54, 39.845, 143.456, 6.0, 10.0, Off E. Coast Of Honshu. Japan (229)
2015-02-20 04:25:24, 39.847, 143.569, 6.3, 13.5, Off E. Coast Of Honshu. Japan (229)
2015-02-19 13:18:32, -16.400, 168.088, 6.5, 10.0, Vanuatu Isls. (186)
2015-02-18 09:32:26, -10.759, 164.121, 6.1, 10.0, Santa Cruz Isls. Region (183)
2015-02-16 23:06:27, 39.829, 142.890, 6.7, 23.0, Nr. E. Coast Of Honshu. Japan (228)
2015-02-16 22:00:53, -55.527, -28.243, 6.2, 10.0, South Sandwich Isls. Region (153)
2015-02-13 20:06:31, 22.664, 121.439, 6.2, 27.0, Taiwan Region (243)
2015-02-13 18:59:12, 52.635, -31.883, 7.1, 16.4, Nthn Mid-Atlantic Ridge (403)
2015-02-11 18:57:18, -23.122, -66.598, 6.7, 190.8, Jujuy Province. Argentina (128)
2015-02-02 10:49:48, -32.714, -67.061, 6.3, 172.2, Mendoza Province. Argentina (139)


EMSC Listing

Feb 2015 Counts [EMSC]: Mag 6: 10 Mag 7: 2 Mag 8: 0 Mag 9: 0

Date/Time UTC,Latitude,Longitude,Magnitude,Depth(Km),Location
2015-02-27 13:45:05, -7.340, 122.520, 7.0, 548.0 Flores Sea
2015-02-22 14:23:14, 18.770, -106.800, 6.2, 2.0, Off Coast Of Jalisco. Mexico
2015-02-21 10:13:53, 39.880, 143.520, 6.0, 2.0, Off E. Coast Of Honshu. Japan
2015-02-20 04:25:23, 39.890, 143.600, 6.3, 10.0, Off E. Coast Of Honshu. Japan
2015-02-19 13:18:32, -16.400, 168.190, 6.5, 2.0, Vanuatu
2015-02-18 09:32:26, -10.700, 164.150, 6.2, 2.0, Santa Cruz Isls. Region
2015-02-16 23:06:27, 39.870, 142.940, 6.8, 15.0, Nr. E. Coast Of Honshu. Japan
2015-02-16 22:01:00, -55.600, -28.450, 6.2, 60.0, South Sandwich Isls. Region
2015-02-13 20:06:31, 22.640, 121.510, 6.2, 20.0, Taiwan Region
2015-02-13 18:59:12, 52.690, -32.040, 7.0, 16.0, Reykjanes Ridge
2015-02-11 18:57:18, -23.130, -66.630, 6.6, 180.0, Jujuy. Argentina
2015-02-02 10:49:49, -32.600, -67.190, 6.3, 182.0, San Luis. Argentina


January 2015

Jan 2015 Counts [USGS]: Mag 6: 4 Mag 7: 0 Mag 8: 0 Mag 9: 0

Date/Time UTC,Latitude,Longitude,Magnitude,Depth(Km),Location
2015-01-30 17:57:57, -21.245, 170.158, 6.0, 15.0, SE Of Loyalty Isls. (189)
2015-01-28 02:43:19, -20.907, -178.351, 6.1, 483.6, Fiji Isls. Region (181)
2015-01-23 03:47:27, -17.000, 168.531, 6.8, 218.5, Vanuatu Isls. (186)
2015-01-07 05:07:08, 5.828, -82.652, 6.6, 10.0, South Of Panama (83)


EMSC Listing

Jan 2015 Counts [EMSC]: Mag 6: 4 Mag 7: 0 Mag 8: 0 Mag 9: 0

Date/Time UTC,Latitude,Longitude,Magnitude,Depth(Km),Location
2015-01-30 17:57:57, -21.290, 170.210, 6.0, 10.0, SE Of Loyalty Isls.
2015-01-28 02:43:19, -21.000, -178.290, 6.1, 480.0, Fiji Region
2015-01-23 03:47:26, -17.020, 168.570, 6.7, 216.0, Vanuatu
2015-01-07 05:07:07, 5.820, -82.660, 6.4, 2.0, South Of Panama


Link to 2014

Leave a Reply (All Comments are moderated by a human)

Fill in your details below or click an icon to log in:

WordPress.com Logo

You are commenting using your WordPress.com account. Log Out / Change )

Twitter picture

You are commenting using your Twitter account. Log Out / Change )

Facebook photo

You are commenting using your Facebook account. Log Out / Change )

Google+ photo

You are commenting using your Google+ account. Log Out / Change )

Connecting to %s